WetterOnline ( https://www.wetteronline.de )

Wetter aktuell Iserlohn

Aktuelles Wetter: Lüdenscheid (392m)

6-stündlich | Neueste Meldungen
Ortszeit Temperatur Wetter
Di, 28.05. 2:00 10.7° C bedeckt
Mo, 27.05. 20:00 12.9° C wolkig
Mo, 27.05. 14:00 16.9° C bewölkt
Mo, 27.05. 8:00 13.3° C bedeckt
Mo, 27.05. 2:00 12.0° C bedeckt
So, 26.05. 20:00 17.1° C wolkig
So, 26.05. 14:00 20.3° C bedeckt
So, 26.05. 8:00 13.2° C Nebel
Ortszeit Temperatur Wetter
Di, 28.05. 6:30 9.0° C bewölkt
Di, 28.05. 6:20 9.0° C bewölkt
Di, 28.05. 6:10 9.0° C bedeckt
Di, 28.05. 6:00 8.8° C bewölkt
Di, 28.05. 5:50 8.8° C bewölkt
Di, 28.05. 5:40 8.8° C bewölkt
Di, 28.05. 5:30 9.0° C bedeckt
Di, 28.05. 5:00 9.4° C leichter Regen
Di, 28.05. 4:30 9.6° C bedeckt
Di, 28.05. 4:00 9.7° C bedeckt
Di, 28.05. 3:30 9.7° C bewölkt
Ortszeit Relative Feuchte Sichtweite
Di, 28.05. 2:00 97% 7 km
Mo, 27.05. 20:00 92% 45 km
Mo, 27.05. 14:00 62% 60 km
Mo, 27.05. 8:00 83% 50 km
Mo, 27.05. 2:00 94% 55 km
So, 26.05. 20:00 68% >70 km
So, 26.05. 14:00 49% >70 km
So, 26.05. 8:00 87% 40 km
Ortszeit Relative Feuchte Sichtweite
Di, 28.05. 6:30 95% 16 km
Di, 28.05. 6:20 95% -
Di, 28.05. 6:10 96% -
Di, 28.05. 6:00 95% 24 km
Di, 28.05. 5:50 95% -
Di, 28.05. 5:40 95% -
Di, 28.05. 5:30 96% 22 km
Di, 28.05. 5:00 96% 6 km
Di, 28.05. 4:30 93% 29 km
Di, 28.05. 4:00 95% 24 km
Di, 28.05. 3:30 95% 22 km
Ortszeit Niederschlagsmenge Niederschlagsart
Di, 28.05. 2:00 0.1 l/m2 in 6 Std. Regen
Mo, 27.05. 20:00 4 l/m2 in 12 Std. Regen
Mo, 27.05. 14:00 0.0 l/m2 in 6 Std. -
Mo, 27.05. 8:00 3 l/m2 in 12 Std. Regen
Mo, 27.05. 2:00 3 l/m2 in 6 Std. Regen
So, 26.05. 20:00 0.1 l/m2 in 12 Std. Regen
So, 26.05. 14:00 0.0 l/m2 in 6 Std. -
So, 26.05. 8:00 0.0 l/m2 in 12 Std. -
Ortszeit Niederschlagsmenge Niederschlagsart
Di, 28.05. 6:30 0.0 l/m2 in 30 Min -
Di, 28.05. 6:20 keine Meldung -
Di, 28.05. 6:10 keine Meldung -
Di, 28.05. 6:00 <0.05 l/m2 in 1 Std. Regen
Di, 28.05. 5:50 keine Meldung -
Di, 28.05. 5:40 keine Meldung -
Di, 28.05. 5:30 <0.05 l/m2 in 30 Min Schneeregen
Di, 28.05. 5:00 0.1 l/m2 in 1 Std. Regen
Di, 28.05. 4:30 0.0 l/m2 in 30 Min -
Di, 28.05. 4:00 <0.05 l/m2 in 1 Std. Regen
Di, 28.05. 3:30 <0.05 l/m2 in 30 Min Schneeregen
Ortszeit Stärke Spitze Richtung
km/h Bft. km/h Grad Sektor
Di, 28.05. 2:00 11 2 18 260° W
Mo, 27.05. 20:00 2 1 31 270° W
Mo, 27.05. 14:00 7 2 28 260° W
Mo, 27.05. 8:00 7 2 14 220° SW
Mo, 27.05. 2:00 4 1 29 270° W
So, 26.05. 20:00 11 2 40 140° SO
So, 26.05. 14:00 14 3 32 150° SO
So, 26.05. 8:00 7 2 11 100° O
Ortszeit Stärke Spitze Richtung
km/h Bft. km/h Grad Sektor
Di, 28.05. 6:30 11 2 20 260° W
Di, 28.05. 6:20 11 2 - 260° W
Di, 28.05. 6:10 11 2 - 260° W
Di, 28.05. 6:00 11 2 29 260° W
Di, 28.05. 5:50 11 2 - 260° W
Di, 28.05. 5:40 13 3 - 260° W
Di, 28.05. 5:30 13 3 28 260° W
Di, 28.05. 5:00 18 3 29 270° W
Di, 28.05. 4:30 14 3 25 260° W
Di, 28.05. 4:00 13 3 20 250° W
Di, 28.05. 3:30 11 2 22 260° W
Ortszeit Untergrenze Bedeckung Gattung
total tief tief mittel hoch
Di, 28.05. 2:00 180 m 8/8 8/8 - - -
Mo, 27.05. 20:00 1800 m 7/8 1/8 - - -
Mo, 27.05. 14:00 960 m 7/8 7/8 - - -
Mo, 27.05. 8:00 2100 m 8/8 8/8 - - -
Mo, 27.05. 2:00 3000 m 8/8 8/8 - - -
So, 26.05. 20:00 1470 m 7/8 5/8 - - -
So, 26.05. 14:00 4200 m 8/8 8/8 - - -
So, 26.05. 8:00 6600 m 7/8 7/8 - - -
Ortszeit Bedeckungsgrad in Achtel und Wolkenuntergrenze
Di, 28.05. 6:30 7(210m) 7(1320m)
Di, 28.05. 6:20 7(210m) 7(1320m)
Di, 28.05. 6:10 8
Di, 28.05. 6:00 4(240m) 7(1230m)
Di, 28.05. 5:50 4(240m) 7(1230m)
Di, 28.05. 5:40 7
Di, 28.05. 5:30 5(180m) 7(1260m) 8(1470m)
Di, 28.05. 5:00 8(180m) 8(1290m)
Di, 28.05. 4:30 7(240m) 8(450m)
Di, 28.05. 4:00 7(240m) 7(480m) 8(1500m)
Di, 28.05. 3:30 3(240m) 7(1800m) 8(3300m)
Ortszeit Luftdruck NN (hPa) Tendenz (hPa in 3 Std.)
Di, 28.05. 2:00 1018 0,0
Mo, 27.05. 20:00 1016 0,0
Mo, 27.05. 14:00 1017 - 0,4
Mo, 27.05. 8:00 1018 + 0,6
Mo, 27.05. 2:00 1017 + 0,3
So, 26.05. 20:00 1015 + 0,2
So, 26.05. 14:00 1015 - 0,7
So, 26.05. 8:00 1017 - 0,1
Ortszeit Luftdruck NN (hPa) Tendenz (hPa in 3 Std.)
Di, 28.05. 6:30 1019 + 0,4
Di, 28.05. 6:20 1019 keine Meldung
Di, 28.05. 6:10 1019 keine Meldung
Di, 28.05. 6:00 1019 + 0,5
Di, 28.05. 5:50 1019 keine Meldung
Di, 28.05. 5:40 1019 keine Meldung
Di, 28.05. 5:30 1018 + 0,2
Di, 28.05. 5:00 1018 + 0,4
Di, 28.05. 4:30 1018 + 0,4
Di, 28.05. 4:00 1018 + 0,6
Di, 28.05. 3:30 1018 + 0,6
Ortszeit Schneehöhe (cm)
Di, 28.05. 2:00 0
Mo, 27.05. 20:00 0
Mo, 27.05. 14:00 0
Mo, 27.05. 8:00 0
Mo, 27.05. 2:00 0
So, 26.05. 20:00 0
So, 26.05. 14:00 0
So, 26.05. 8:00 0
Ortszeit Schneehöhe (cm)
Di, 28.05. 6:30 0
Di, 28.05. 6:20 0
Di, 28.05. 6:10 -
Di, 28.05. 6:00 0
Di, 28.05. 5:50 0
Di, 28.05. 5:40 -
Di, 28.05. 5:30 0
Di, 28.05. 5:00 0
Di, 28.05. 4:30 0
Di, 28.05. 4:00 0
Di, 28.05. 3:30 0
Link zu dieser Seite / Seite empfehlen

Das Wetter in ...